Austin, Texas
Traffic Map
Current Weather Conditions
Austin, Texas
Broken Clouds Thunderstorm
Broken Clouds
72°
Feels Like: 72°
Wind Chill: 72° Ceiling: 900
Heat Index: 72° Visibility: 10mi
Dew Point: 72° Wind: 3mph
Humidity: 100% Direction: 230° (SW)
Pressure: 29.87in Gusts: 0mph
Raw Report DataKATT 180944Z AUTO 23003KT 10SM -TSRA SCT005 BKN009 BKN017 22/22 A2987 RMK AO2 TSB23E38B43 P0001 T02220222 $
Traffic Incident Summary
Active as of:
Severity:
Category:
InformationThere was an issue retrieving the traffic information for this location. Please try a different location or try again shortly.
Advertisements
Track Severe Weather on mobile